sensor_id;sensor_type;location;lat;lon;timestamp;temperature;humidity
18305;DHT22;9278;52.156;21.048;2022-09-02T00:02:23;11.20;99.90
18305;DHT22;9278;52.156;21.048;2022-09-02T00:04:51;11.20;99.90
18305;DHT22;9278;52.156;21.048;2022-09-02T00:07:20;11.20;99.90
18305;DHT22;9278;52.156;21.048;2022-09-02T00:09:49;11.20;99.90
18305;DHT22;9278;52.156;21.048;2022-09-02T00:12:17;11.10;99.90
18305;DHT22;9278;52.156;21.048;2022-09-02T00:14:45;11.20;99.90
18305;DHT22;9278;52.156;21.048;2022-09-02T00:17:13;11.10;99.90
18305;DHT22;9278;52.156;21.048;2022-09-02T00:19:41;11.20;99.90
18305;DHT22;9278;52.156;21.048;2022-09-02T00:22:09;11.00;99.90
18305;DHT22;9278;52.156;21.048;2022-09-02T00:24:38;10.90;99.90
18305;DHT22;9278;52.156;21.048;2022-09-02T00:27:07;10.80;99.90
18305;DHT22;9278;52.156;21.048;2022-09-02T00:29:35;10.90;99.90
18305;DHT22;9278;52.156;21.048;2022-09-02T00:32:05;10.90;99.90
18305;DHT22;9278;52.156;21.048;2022-09-02T00:34:33;11.00;99.90
18305;DHT22;9278;52.156;21.048;2022-09-02T00:37:02;11.00;99.90
18305;DHT22;9278;52.156;21.048;2022-09-02T00:39:31;11.10;99.90
18305;DHT22;9278;52.156;21.048;2022-09-02T00:41:59;11.20;99.90
18305;DHT22;9278;52.156;21.048;2022-09-02T00:44:29;11.20;99.90
18305;DHT22;9278;52.156;21.048;2022-09-02T00:46:57;11.40;99.90
18305;DHT22;9278;52.156;21.048;2022-09-02T00:49:28;11.30;99.90
18305;DHT22;9278;52.156;21.048;2022-09-02T00:52:02;11.30;99.90
18305;DHT22;9278;52.156;21.048;2022-09-02T00:54:34;11.20;99.90
18305;DHT22;9278;52.156;21.048;2022-09-02T00:57:06;11.20;99.90
18305;DHT22;9278;52.156;21.048;2022-09-02T00:59:45;11.00;99.90
18305;DHT22;9278;52.156;21.048;2022-09-02T01:02:15;11.10;99.90
18305;DHT22;9278;52.156;21.048;2022-09-02T01:04:44;11.00;99.90
18305;DHT22;9278;52.156;21.048;2022-09-02T01:07:13;11.00;99.90
18305;DHT22;9278;52.156;21.048;2022-09-02T01:09:42;11.00;99.90
18305;DHT22;9278;52.156;21.048;2022-09-02T01:12:10;11.00;99.90
18305;DHT22;9278;52.156;21.048;2022-09-02T01:14:42;11.00;99.90
18305;DHT22;9278;52.156;21.048;2022-09-02T01:17:10;10.90;99.90
18305;DHT22;9278;52.156;21.048;2022-09-02T01:19:41;10.90;99.90
18305;DHT22;9278;52.156;21.048;2022-09-02T01:22:16;10.80;99.90
18305;DHT22;9278;52.156;21.048;2022-09-02T01:24:45;10.80;99.90
18305;DHT22;9278;52.156;21.048;2022-09-02T01:27:15;10.70;99.90
18305;DHT22;9278;52.156;21.048;2022-09-02T01:29:44;10.70;99.90
18305;DHT22;9278;52.156;21.048;2022-09-02T01:32:12;10.60;99.90
18305;DHT22;9278;52.156;21.048;2022-09-02T01:34:40;10.50;99.90
18305;DHT22;9278;52.156;21.048;2022-09-02T01:37:08;10.70;99.90
18305;DHT22;9278;52.156;21.048;2022-09-02T01:39:38;10.50;99.90
18305;DHT22;9278;52.156;21.048;2022-09-02T01:42:06;10.40;99.90
18305;DHT22;9278;52.156;21.048;2022-09-02T01:44:35;10.50;99.90
18305;DHT22;9278;52.156;21.048;2022-09-02T01:47:10;10.50;99.90
18305;DHT22;9278;52.156;21.048;2022-09-02T01:49:38;10.50;99.90
18305;DHT22;9278;52.156;21.048;2022-09-02T01:52:07;10.60;99.90
18305;DHT22;9278;52.156;21.048;2022-09-02T01:54:37;10.70;99.90
18305;DHT22;9278;52.156;21.048;2022-09-02T01:57:07;10.80;99.90
18305;DHT22;9278;52.156;21.048;2022-09-02T01:59:36;10.90;99.90
18305;DHT22;9278;52.156;21.048;2022-09-02T02:02:06;10.90;99.90
18305;DHT22;9278;52.156;21.048;2022-09-02T02:04:35;10.80;99.90
18305;DHT22;9278;52.156;21.048;2022-09-02T02:07:05;10.80;99.90
18305;DHT22;9278;52.156;21.048;2022-09-02T02:09:34;10.60;99.90
18305;DHT22;9278;52.156;21.048;2022-09-02T02:12:05;10.50;99.90
18305;DHT22;9278;52.156;21.048;2022-09-02T02:14:34;10.50;99.90
18305;DHT22;9278;52.156;21.048;2022-09-02T02:17:03;10.50;99.90
18305;DHT22;9278;52.156;21.048;2022-09-02T02:19:31;10.40;99.90
18305;DHT22;9278;52.156;21.048;2022-09-02T02:22:00;10.20;99.90
18305;DHT22;9278;52.156;21.048;2022-09-02T02:24:29;10.30;99.90
18305;DHT22;9278;52.156;21.048;2022-09-02T02:26:57;10.20;99.90
18305;DHT22;9278;52.156;21.048;2022-09-02T02:29:26;10.30;99.90
18305;DHT22;9278;52.156;21.048;2022-09-02T02:31:55;10.30;99.90
18305;DHT22;9278;52.156;21.048;2022-09-02T02:34:23;10.30;99.90
18305;DHT22;9278;52.156;21.048;2022-09-02T02:36:51;10.30;99.90
18305;DHT22;9278;52.156;21.048;2022-09-02T02:39:20;10.10;99.90
18305;DHT22;9278;52.156;21.048;2022-09-02T02:41:48;9.90;99.90
18305;DHT22;9278;52.156;21.048;2022-09-02T02:44:16;9.80;99.90
18305;DHT22;9278;52.156;21.048;2022-09-02T02:46:46;9.80;99.90
18305;DHT22;9278;52.156;21.048;2022-09-02T02:49:15;9.90;99.90
18305;DHT22;9278;52.156;21.048;2022-09-02T02:51:43;10.00;99.90
18305;DHT22;9278;52.156;21.048;2022-09-02T02:54:11;10.00;99.90
18305;DHT22;9278;52.156;21.048;2022-09-02T02:56:40;10.00;99.90
18305;DHT22;9278;52.156;21.048;2022-09-02T02:59:09;10.10;99.90
18305;DHT22;9278;52.156;21.048;2022-09-02T03:01:37;10.10;99.90
18305;DHT22;9278;52.156;21.048;2022-09-02T03:04:08;10.10;99.90
18305;DHT22;9278;52.156;21.048;2022-09-02T03:06:36;10.00;99.90
18305;DHT22;9278;52.156;21.048;2022-09-02T03:09:04;9.90;99.90
18305;DHT22;9278;52.156;21.048;2022-09-02T03:11:35;9.80;99.90
18305;DHT22;9278;52.156;21.048;2022-09-02T03:14:03;9.60;99.90
18305;DHT22;9278;52.156;21.048;2022-09-02T03:16:33;9.50;99.90
18305;DHT22;9278;52.156;21.048;2022-09-02T03:19:02;9.60;99.90
18305;DHT22;9278;52.156;21.048;2022-09-02T03:21:32;9.60;99.90
18305;DHT22;9278;52.156;21.048;2022-09-02T03:24:07;9.50;99.90
18305;DHT22;9278;52.156;21.048;2022-09-02T03:26:36;9.50;99.90
18305;DHT22;9278;52.156;21.048;2022-09-02T03:29:04;9.60;99.90
18305;DHT22;9278;52.156;21.048;2022-09-02T03:31:33;9.60;99.90
18305;DHT22;9278;52.156;21.048;2022-09-02T03:34:03;9.60;99.90
18305;DHT22;9278;52.156;21.048;2022-09-02T03:36:37;9.60;99.90
18305;DHT22;9278;52.156;21.048;2022-09-02T03:39:08;9.70;99.90
18305;DHT22;9278;52.156;21.048;2022-09-02T03:41:39;9.70;99.90
18305;DHT22;9278;52.156;21.048;2022-09-02T03:44:09;9.70;99.90
18305;DHT22;9278;52.156;21.048;2022-09-02T03:46:38;9.60;99.90
18305;DHT22;9278;52.156;21.048;2022-09-02T03:49:07;9.60;99.90
18305;DHT22;9278;52.156;21.048;2022-09-02T03:51:39;9.60;99.90
18305;DHT22;9278;52.156;21.048;2022-09-02T03:54:08;9.70;99.90
18305;DHT22;9278;52.156;21.048;2022-09-02T03:56:38;9.60;99.90
18305;DHT22;9278;52.156;21.048;2022-09-02T03:59:07;9.60;99.90
18305;DHT22;9278;52.156;21.048;2022-09-02T04:01:35;9.60;99.90
18305;DHT22;9278;52.156;21.048;2022-09-02T04:04:05;9.50;99.90
18305;DHT22;9278;52.156;21.048;2022-09-02T04:06:37;9.50;99.90
18305;DHT22;9278;52.156;21.048;2022-09-02T04:09:06;9.60;99.90
18305;DHT22;9278;52.156;21.048;2022-09-02T04:11:37;9.60;99.90
18305;DHT22;9278;52.156;21.048;2022-09-02T04:14:10;9.60;99.90
18305;DHT22;9278;52.156;21.048;2022-09-02T04:16:39;9.70;99.90
18305;DHT22;9278;52.156;21.048;2022-09-02T04:19:08;9.70;99.90
18305;DHT22;9278;52.156;21.048;2022-09-02T04:21:40;9.80;99.90
18305;DHT22;9278;52.156;21.048;2022-09-02T04:24:10;9.90;99.90
18305;DHT22;9278;52.156;21.048;2022-09-02T04:26:43;9.90;99.90
18305;DHT22;9278;52.156;21.048;2022-09-02T04:29:14;10.00;99.90
18305;DHT22;9278;52.156;21.048;2022-09-02T04:31:46;10.00;99.90
18305;DHT22;9278;52.156;21.048;2022-09-02T04:34:14;10.10;99.90
18305;DHT22;9278;52.156;21.048;2022-09-02T04:36:44;10.10;99.90
18305;DHT22;9278;52.156;21.048;2022-09-02T04:39:12;10.10;99.90
18305;DHT22;9278;52.156;21.048;2022-09-02T04:41:41;10.20;99.90
18305;DHT22;9278;52.156;21.048;2022-09-02T04:44:11;10.20;99.90
18305;DHT22;9278;52.156;21.048;2022-09-02T04:46:42;10.30;99.90
18305;DHT22;9278;52.156;21.048;2022-09-02T04:49:15;10.40;99.90
18305;DHT22;9278;52.156;21.048;2022-09-02T04:51:46;10.40;99.90
18305;DHT22;9278;52.156;21.048;2022-09-02T04:54:14;10.50;99.90
18305;DHT22;9278;52.156;21.048;2022-09-02T04:56:46;10.40;99.90
18305;DHT22;9278;52.156;21.048;2022-09-02T04:59:15;10.50;99.90
18305;DHT22;9278;52.156;21.048;2022-09-02T05:01:52;10.50;99.90
18305;DHT22;9278;52.156;21.048;2022-09-02T05:04:25;10.60;99.90
18305;DHT22;9278;52.156;21.048;2022-09-02T05:06:54;10.70;99.90
18305;DHT22;9278;52.156;21.048;2022-09-02T05:09:24;10.70;99.90
18305;DHT22;9278;52.156;21.048;2022-09-02T05:12:05;10.80;99.90
18305;DHT22;9278;52.156;21.048;2022-09-02T05:14:43;10.80;99.90
18305;DHT22;9278;52.156;21.048;2022-09-02T05:17:11;10.80;99.90
18305;DHT22;9278;52.156;21.048;2022-09-02T05:19:42;11.00;99.90
18305;DHT22;9278;52.156;21.048;2022-09-02T05:22:14;11.00;99.90
18305;DHT22;9278;52.156;21.048;2022-09-02T05:24:43;11.20;99.90
18305;DHT22;9278;52.156;21.048;2022-09-02T05:27:13;11.20;99.90
18305;DHT22;9278;52.156;21.048;2022-09-02T05:29:44;11.20;99.90
18305;DHT22;9278;52.156;21.048;2022-09-02T05:32:15;11.30;99.90
18305;DHT22;9278;52.156;21.048;2022-09-02T05:34:46;11.40;99.90
18305;DHT22;9278;52.156;21.048;2022-09-02T05:37:16;11.40;99.90
18305;DHT22;9278;52.156;21.048;2022-09-02T05:39:46;11.50;99.90
18305;DHT22;9278;52.156;21.048;2022-09-02T05:42:15;11.60;99.90
18305;DHT22;9278;52.156;21.048;2022-09-02T05:44:47;11.70;99.90
18305;DHT22;9278;52.156;21.048;2022-09-02T05:47:18;11.70;99.90
18305;DHT22;9278;52.156;21.048;2022-09-02T05:49:47;11.90;99.90
18305;DHT22;9278;52.156;21.048;2022-09-02T05:52:17;11.80;99.90
18305;DHT22;9278;52.156;21.048;2022-09-02T05:54:48;12.20;99.90
18305;DHT22;9278;52.156;21.048;2022-09-02T05:57:20;12.10;99.90
18305;DHT22;9278;52.156;21.048;2022-09-02T06:00:09;12.30;99.90
18305;DHT22;9278;52.156;21.048;2022-09-02T06:02:50;12.20;99.90
18305;DHT22;9278;52.156;21.048;2022-09-02T06:05:24;12.20;99.90
18305;DHT22;9278;52.156;21.048;2022-09-02T06:08:04;12.40;99.90
18305;DHT22;9278;52.156;21.048;2022-09-02T06:10:39;12.30;99.90
18305;DHT22;9278;52.156;21.048;2022-09-02T06:13:10;12.40;99.90
18305;DHT22;9278;52.156;21.048;2022-09-02T06:15:40;12.50;99.90
18305;DHT22;9278;52.156;21.048;2022-09-02T06:18:11;12.70;99.90
18305;DHT22;9278;52.156;21.048;2022-09-02T06:20:44;12.60;99.90
18305;DHT22;9278;52.156;21.048;2022-09-02T06:23:16;12.50;99.90
18305;DHT22;9278;52.156;21.048;2022-09-02T06:25:47;12.60;99.90
18305;DHT22;9278;52.156;21.048;2022-09-02T06:28:17;13.10;99.90
18305;DHT22;9278;52.156;21.048;2022-09-02T06:30:47;12.90;99.90
18305;DHT22;9278;52.156;21.048;2022-09-02T06:33:20;12.90;99.90
18305;DHT22;9278;52.156;21.048;2022-09-02T06:35:50;12.80;99.90
18305;DHT22;9278;52.156;21.048;2022-09-02T06:38:20;13.10;99.90
18305;DHT22;9278;52.156;21.048;2022-09-02T06:40:52;13.10;99.90
18305;DHT22;9278;52.156;21.048;2022-09-02T06:43:36;13.20;99.90
18305;DHT22;9278;52.156;21.048;2022-09-02T06:46:20;13.20;99.90
18305;DHT22;9278;52.156;21.048;2022-09-02T06:48:53;13.30;99.90
18305;DHT22;9278;52.156;21.048;2022-09-02T06:51:24;13.50;99.90
18305;DHT22;9278;52.156;21.048;2022-09-02T06:53:56;13.70;99.90
18305;DHT22;9278;52.156;21.048;2022-09-02T06:56:29;14.00;99.90
18305;DHT22;9278;52.156;21.048;2022-09-02T06:58:58;13.80;99.90
18305;DHT22;9278;52.156;21.048;2022-09-02T07:01:41;13.80;99.90
18305;DHT22;9278;52.156;21.048;2022-09-02T07:04:13;14.00;99.90
18305;DHT22;9278;52.156;21.048;2022-09-02T07:06:59;14.10;99.90
18305;DHT22;9278;52.156;21.048;2022-09-02T07:09:32;14.10;99.90
18305;DHT22;9278;52.156;21.048;2022-09-02T07:12:07;14.00;99.90
18305;DHT22;9278;52.156;21.048;2022-09-02T07:14:43;14.30;99.90
18305;DHT22;9278;52.156;21.048;2022-09-02T07:17:14;14.30;99.90
18305;DHT22;9278;52.156;21.048;2022-09-02T07:19:47;14.30;99.90
18305;DHT22;9278;52.156;21.048;2022-09-02T07:22:15;14.40;99.90
18305;DHT22;9278;52.156;21.048;2022-09-02T07:24:46;14.40;99.90
18305;DHT22;9278;52.156;21.048;2022-09-02T07:27:15;14.50;99.90
18305;DHT22;9278;52.156;21.048;2022-09-02T07:29:48;14.60;99.90
18305;DHT22;9278;52.156;21.048;2022-09-02T07:32:17;14.70;99.90
18305;DHT22;9278;52.156;21.048;2022-09-02T07:34:46;14.70;99.90
18305;DHT22;9278;52.156;21.048;2022-09-02T07:37:15;14.80;99.90
18305;DHT22;9278;52.156;21.048;2022-09-02T07:39:43;14.80;99.90
18305;DHT22;9278;52.156;21.048;2022-09-02T07:42:15;14.80;99.90
18305;DHT22;9278;52.156;21.048;2022-09-02T07:44:45;14.80;99.90
18305;DHT22;9278;52.156;21.048;2022-09-02T07:47:14;14.90;99.90
18305;DHT22;9278;52.156;21.048;2022-09-02T07:49:44;14.90;99.90
18305;DHT22;9278;52.156;21.048;2022-09-02T07:52:33;15.30;99.90
18305;DHT22;9278;52.156;21.048;2022-09-02T07:55:01;15.30;99.90
18305;DHT22;9278;52.156;21.048;2022-09-02T07:57:31;15.40;99.90
18305;DHT22;9278;52.156;21.048;2022-09-02T08:00:00;15.40;99.90
18305;DHT22;9278;52.156;21.048;2022-09-02T08:02:39;15.30;99.90
18305;DHT22;9278;52.156;21.048;2022-09-02T08:05:11;15.10;99.90
18305;DHT22;9278;52.156;21.048;2022-09-02T08:07:40;15.50;99.90
18305;DHT22;9278;52.156;21.048;2022-09-02T08:10:09;15.50;99.90
18305;DHT22;9278;52.156;21.048;2022-09-02T08:12:40;15.40;99.90
18305;DHT22;9278;52.156;21.048;2022-09-02T08:15:10;15.60;99.90
18305;DHT22;9278;52.156;21.048;2022-09-02T08:17:39;15.70;99.90
18305;DHT22;9278;52.156;21.048;2022-09-02T08:20:08;15.80;99.90
18305;DHT22;9278;52.156;21.048;2022-09-02T08:22:39;15.80;99.90
18305;DHT22;9278;52.156;21.048;2022-09-02T08:25:08;15.70;99.90
18305;DHT22;9278;52.156;21.048;2022-09-02T08:27:40;16.00;99.90
18305;DHT22;9278;52.156;21.048;2022-09-02T08:30:09;16.00;99.90
18305;DHT22;9278;52.156;21.048;2022-09-02T08:32:38;15.90;99.90
18305;DHT22;9278;52.156;21.048;2022-09-02T08:35:08;16.00;99.90
18305;DHT22;9278;52.156;21.048;2022-09-02T08:37:37;15.90;99.90
18305;DHT22;9278;52.156;21.048;2022-09-02T08:40:07;16.10;99.90
18305;DHT22;9278;52.156;21.048;2022-09-02T08:42:44;16.20;99.90
18305;DHT22;9278;52.156;21.048;2022-09-02T08:45:23;16.30;99.90
18305;DHT22;9278;52.156;21.048;2022-09-02T08:48:00;16.20;99.90
18305;DHT22;9278;52.156;21.048;2022-09-02T08:50:30;16.40;99.90
18305;DHT22;9278;52.156;21.048;2022-09-02T08:53:05;16.40;99.90
18305;DHT22;9278;52.156;21.048;2022-09-02T08:55:39;16.30;99.90
18305;DHT22;9278;52.156;21.048;2022-09-02T08:58:15;16.30;99.90
18305;DHT22;9278;52.156;21.048;2022-09-02T09:00:49;16.70;99.90
18305;DHT22;9278;52.156;21.048;2022-09-02T09:03:23;16.80;99.90
18305;DHT22;9278;52.156;21.048;2022-09-02T09:05:58;16.80;99.90
18305;DHT22;9278;52.156;21.048;2022-09-02T09:08:32;16.80;99.90
18305;DHT22;9278;52.156;21.048;2022-09-02T09:11:09;16.70;99.90
18305;DHT22;9278;52.156;21.048;2022-09-02T09:13:56;16.60;99.90
18305;DHT22;9278;52.156;21.048;2022-09-02T09:16:37;16.80;99.90
18305;DHT22;9278;52.156;21.048;2022-09-02T09:19:11;16.80;99.90
18305;DHT22;9278;52.156;21.048;2022-09-02T09:21:40;16.80;99.90
18305;DHT22;9278;52.156;21.048;2022-09-02T09:24:19;16.80;99.90
18305;DHT22;9278;52.156;21.048;2022-09-02T09:26:49;16.70;99.90
18305;DHT22;9278;52.156;21.048;2022-09-02T09:29:18;16.80;99.90
18305;DHT22;9278;52.156;21.048;2022-09-02T09:31:49;17.00;99.90
18305;DHT22;9278;52.156;21.048;2022-09-02T09:34:20;16.90;99.90
18305;DHT22;9278;52.156;21.048;2022-09-02T09:36:51;17.00;99.90
18305;DHT22;9278;52.156;21.048;2022-09-02T09:39:23;17.20;99.90
18305;DHT22;9278;52.156;21.048;2022-09-02T09:41:53;17.30;99.90
18305;DHT22;9278;52.156;21.048;2022-09-02T09:44:42;17.50;99.90
18305;DHT22;9278;52.156;21.048;2022-09-02T09:47:16;17.60;99.90
18305;DHT22;9278;52.156;21.048;2022-09-02T09:49:48;17.50;99.90
18305;DHT22;9278;52.156;21.048;2022-09-02T09:52:25;17.60;99.90
18305;DHT22;9278;52.156;21.048;2022-09-02T09:55:11;17.60;99.90
18305;DHT22;9278;52.156;21.048;2022-09-02T09:57:40;17.70;99.90
18305;DHT22;9278;52.156;21.048;2022-09-02T10:00:27;17.60;99.90
18305;DHT22;9278;52.156;21.048;2022-09-02T10:03:00;17.80;99.90
18305;DHT22;9278;52.156;21.048;2022-09-02T10:05:32;17.90;98.70
18305;DHT22;9278;52.156;21.048;2022-09-02T10:08:02;18.20;98.80
18305;DHT22;9278;52.156;21.048;2022-09-02T10:10:55;18.10;98.00
18305;DHT22;9278;52.156;21.048;2022-09-02T10:13:26;18.00;97.70
18305;DHT22;9278;52.156;21.048;2022-09-02T10:18:53;18.20;97.10
18305;DHT22;9278;52.156;21.048;2022-09-02T10:21:32;18.30;96.00
18305;DHT22;9278;52.156;21.048;2022-09-02T10:24:11;18.20;95.30
18305;DHT22;9278;52.156;21.048;2022-09-02T10:26:47;18.20;95.20
18305;DHT22;9278;52.156;21.048;2022-09-02T10:29:43;18.30;94.60
18305;DHT22;9278;52.156;21.048;2022-09-02T10:32:24;18.40;93.80
18305;DHT22;9278;52.156;21.048;2022-09-02T10:35:06;18.30;94.10
18305;DHT22;9278;52.156;21.048;2022-09-02T10:37:42;18.20;92.50
18305;DHT22;9278;52.156;21.048;2022-09-02T10:40:14;18.30;93.50
18305;DHT22;9278;52.156;21.048;2022-09-02T10:42:51;18.40;92.30
18305;DHT22;9278;52.156;21.048;2022-09-02T10:45:26;18.50;90.90
18305;DHT22;9278;52.156;21.048;2022-09-02T10:48:08;18.60;90.90
18305;DHT22;9278;52.156;21.048;2022-09-02T10:50:47;18.60;90.60
18305;DHT22;9278;52.156;21.048;2022-09-02T10:53:32;18.50;90.90
18305;DHT22;9278;52.156;21.048;2022-09-02T10:56:05;18.60;91.10
18305;DHT22;9278;52.156;21.048;2022-09-02T10:58:43;18.50;90.20
18305;DHT22;9278;52.156;21.048;2022-09-02T11:01:17;18.40;90.40
18305;DHT22;9278;52.156;21.048;2022-09-02T11:04:00;18.50;91.00
18305;DHT22;9278;52.156;21.048;2022-09-02T11:06:35;18.80;88.50
18305;DHT22;9278;52.156;21.048;2022-09-02T11:09:29;19.00;85.60
18305;DHT22;9278;52.156;21.048;2022-09-02T11:12:04;19.10;80.50
18305;DHT22;9278;52.156;21.048;2022-09-02T11:14:39;19.10;81.70
18305;DHT22;9278;52.156;21.048;2022-09-02T11:17:18;19.00;79.00
18305;DHT22;9278;52.156;21.048;2022-09-02T11:19:54;18.90;78.80
18305;DHT22;9278;52.156;21.048;2022-09-02T11:22:27;19.00;78.90
18305;DHT22;9278;52.156;21.048;2022-09-02T11:25:01;19.20;79.00
18305;DHT22;9278;52.156;21.048;2022-09-02T11:27:35;19.10;77.90
18305;DHT22;9278;52.156;21.048;2022-09-02T11:30:11;19.10;78.40
18305;DHT22;9278;52.156;21.048;2022-09-02T11:32:46;19.20;76.40
18305;DHT22;9278;52.156;21.048;2022-09-02T11:35:20;19.20;75.50
18305;DHT22;9278;52.156;21.048;2022-09-02T11:37:53;19.10;73.80
18305;DHT22;9278;52.156;21.048;2022-09-02T11:40:25;18.90;75.50
18305;DHT22;9278;52.156;21.048;2022-09-02T11:43:23;18.90;75.90
18305;DHT22;9278;52.156;21.048;2022-09-02T11:49:11;19.20;73.50
18305;DHT22;9278;52.156;21.048;2022-09-02T11:52:00;18.90;75.00
18305;DHT22;9278;52.156;21.048;2022-09-02T11:54:34;19.00;73.00
18305;DHT22;9278;52.156;21.048;2022-09-02T11:57:05;18.90;74.40
18305;DHT22;9278;52.156;21.048;2022-09-02T12:02:44;19.20;72.10
18305;DHT22;9278;52.156;21.048;2022-09-02T12:05:49;19.40;71.40
18305;DHT22;9278;52.156;21.048;2022-09-02T12:11:49;19.20;66.70
18305;DHT22;9278;52.156;21.048;2022-09-02T12:17:37;18.90;95.30
18305;DHT22;9278;52.156;21.048;2022-09-02T12:20:09;18.70;69.80
18305;DHT22;9278;52.156;21.048;2022-09-02T12:22:38;18.60;70.90
18305;DHT22;9278;52.156;21.048;2022-09-02T12:25:32;19.00;70.90
18305;DHT22;9278;52.156;21.048;2022-09-02T12:28:24;19.30;70.00
18305;DHT22;9278;52.156;21.048;2022-09-02T12:31:17;19.90;66.10
18305;DHT22;9278;52.156;21.048;2022-09-02T12:40:25;19.60;61.50
18305;DHT22;9278;52.156;21.048;2022-09-02T12:42:59;19.50;62.30
18305;DHT22;9278;52.156;21.048;2022-09-02T12:45:31;19.40;65.20
18305;DHT22;9278;52.156;21.048;2022-09-02T12:48:06;19.40;66.50
18305;DHT22;9278;52.156;21.048;2022-09-02T12:50:51;19.30;64.60
18305;DHT22;9278;52.156;21.048;2022-09-02T12:53:28;18.90;66.40
18305;DHT22;9278;52.156;21.048;2022-09-02T12:56:01;18.80;66.90
18305;DHT22;9278;52.156;21.048;2022-09-02T12:58:33;18.80;67.00
18305;DHT22;9278;52.156;21.048;2022-09-02T13:01:12;19.10;66.30
18305;DHT22;9278;52.156;21.048;2022-09-02T13:04:01;19.70;62.30
18305;DHT22;9278;52.156;21.048;2022-09-02T13:06:46;19.90;58.80
18305;DHT22;9278;52.156;21.048;2022-09-02T13:15:23;20.90;51.40
18305;DHT22;9278;52.156;21.048;2022-09-02T13:18:24;20.70;49.20
18305;DHT22;9278;52.156;21.048;2022-09-02T13:21:05;20.90;51.00
18305;DHT22;9278;52.156;21.048;2022-09-02T13:24:12;21.10;49.40
18305;DHT22;9278;52.156;21.048;2022-09-02T13:26:59;20.20;53.70
18305;DHT22;9278;52.156;21.048;2022-09-02T13:30:01;20.50;52.10
18305;DHT22;9278;52.156;21.048;2022-09-02T13:32:32;20.10;53.00
18305;DHT22;9278;52.156;21.048;2022-09-02T13:35:04;20.00;54.00
18305;DHT22;9278;52.156;21.048;2022-09-02T13:37:35;19.90;53.30
18305;DHT22;9278;52.156;21.048;2022-09-02T13:40:06;19.80;53.20
18305;DHT22;9278;52.156;21.048;2022-09-02T13:42:47;20.00;52.80
18305;DHT22;9278;52.156;21.048;2022-09-02T13:45:17;19.70;52.70
18305;DHT22;9278;52.156;21.048;2022-09-02T13:47:48;19.70;53.50
18305;DHT22;9278;52.156;21.048;2022-09-02T13:50:20;19.60;55.10
18305;DHT22;9278;52.156;21.048;2022-09-02T13:52:51;19.50;55.60
18305;DHT22;9278;52.156;21.048;2022-09-02T13:55:46;19.40;54.70
18305;DHT22;9278;52.156;21.048;2022-09-02T13:58:22;19.70;54.70
18305;DHT22;9278;52.156;21.048;2022-09-02T14:00:52;20.00;53.20
18305;DHT22;9278;52.156;21.048;2022-09-02T14:03:29;20.40;50.60
18305;DHT22;9278;52.156;21.048;2022-09-02T14:06:00;20.80;48.90
18305;DHT22;9278;52.156;21.048;2022-09-02T14:08:29;21.10;47.80
18305;DHT22;9278;52.156;21.048;2022-09-02T14:10:58;21.30;46.60
18305;DHT22;9278;52.156;21.048;2022-09-02T14:13:33;21.60;44.50
18305;DHT22;9278;52.156;21.048;2022-09-02T14:16:26;21.70;41.20
18305;DHT22;9278;52.156;21.048;2022-09-02T14:19:09;21.80;41.30
18305;DHT22;9278;52.156;21.048;2022-09-02T14:21:44;21.40;42.00
18305;DHT22;9278;52.156;21.048;2022-09-02T14:24:15;21.30;42.10
18305;DHT22;9278;52.156;21.048;2022-09-02T14:26:46;21.50;43.00
18305;DHT22;9278;52.156;21.048;2022-09-02T14:29:18;21.40;42.00
18305;DHT22;9278;52.156;21.048;2022-09-02T14:32:05;21.10;41.30
18305;DHT22;9278;52.156;21.048;2022-09-02T14:34:37;20.80;66.70
18305;DHT22;9278;52.156;21.048;2022-09-02T14:37:19;20.80;43.00
18305;DHT22;9278;52.156;21.048;2022-09-02T14:40:04;21.10;43.80
18305;DHT22;9278;52.156;21.048;2022-09-02T14:42:43;21.10;42.10
18305;DHT22;9278;52.156;21.048;2022-09-02T14:45:12;21.00;43.10
18305;DHT22;9278;52.156;21.048;2022-09-02T14:47:40;20.60;44.20
18305;DHT22;9278;52.156;21.048;2022-09-02T14:50:10;20.40;44.90
18305;DHT22;9278;52.156;21.048;2022-09-02T14:52:47;20.40;45.60
18305;DHT22;9278;52.156;21.048;2022-09-02T14:55:47;20.60;45.40
18305;DHT22;9278;52.156;21.048;2022-09-02T14:58:16;20.50;44.40
18305;DHT22;9278;52.156;21.048;2022-09-02T15:00:52;20.40;44.00
18305;DHT22;9278;52.156;21.048;2022-09-02T15:03:21;20.20;46.90
18305;DHT22;9278;52.156;21.048;2022-09-02T15:05:50;19.90;45.70
18305;DHT22;9278;52.156;21.048;2022-09-02T15:08:21;19.90;47.10
18305;DHT22;9278;52.156;21.048;2022-09-02T15:10:50;19.90;46.90
18305;DHT22;9278;52.156;21.048;2022-09-02T15:13:28;19.60;46.70
18305;DHT22;9278;52.156;21.048;2022-09-02T15:15:58;19.30;48.90
18305;DHT22;9278;52.156;21.048;2022-09-02T15:18:26;19.10;51.70
18305;DHT22;9278;52.156;21.048;2022-09-02T15:20:54;18.90;51.20
18305;DHT22;9278;52.156;21.048;2022-09-02T15:23:24;18.80;52.20
18305;DHT22;9278;52.156;21.048;2022-09-02T15:25:54;18.70;54.90
18305;DHT22;9278;52.156;21.048;2022-09-02T15:28:22;18.80;56.30
18305;DHT22;9278;52.156;21.048;2022-09-02T15:30:56;18.90;54.80
18305;DHT22;9278;52.156;21.048;2022-09-02T15:33:24;19.10;52.90
18305;DHT22;9278;52.156;21.048;2022-09-02T15:35:53;19.20;52.20
18305;DHT22;9278;52.156;21.048;2022-09-02T15:38:21;19.40;50.50
18305;DHT22;9278;52.156;21.048;2022-09-02T15:40:50;19.50;49.60
18305;DHT22;9278;52.156;21.048;2022-09-02T15:43:19;19.70;49.40
18305;DHT22;9278;52.156;21.048;2022-09-02T15:45:48;20.00;48.90
18305;DHT22;9278;52.156;21.048;2022-09-02T15:48:16;20.20;46.20
18305;DHT22;9278;52.156;21.048;2022-09-02T15:50:44;20.30;45.40
18305;DHT22;9278;52.156;21.048;2022-09-02T15:53:13;20.30;44.20
18305;DHT22;9278;52.156;21.048;2022-09-02T15:55:42;20.00;45.10
18305;DHT22;9278;52.156;21.048;2022-09-02T15:58:11;20.10;46.90
18305;DHT22;9278;52.156;21.048;2022-09-02T16:00:39;20.20;47.40
18305;DHT22;9278;52.156;21.048;2022-09-02T16:03:09;20.10;46.30
18305;DHT22;9278;52.156;21.048;2022-09-02T16:05:37;20.20;45.80
18305;DHT22;9278;52.156;21.048;2022-09-02T16:08:09;20.20;44.30
18305;DHT22;9278;52.156;21.048;2022-09-02T16:10:37;20.30;46.30
18305;DHT22;9278;52.156;21.048;2022-09-02T16:13:06;20.40;45.20
18305;DHT22;9278;52.156;21.048;2022-09-02T16:15:35;20.20;46.70
18305;DHT22;9278;52.156;21.048;2022-09-02T16:18:03;20.10;45.00
18305;DHT22;9278;52.156;21.048;2022-09-02T16:20:31;19.80;45.50
18305;DHT22;9278;52.156;21.048;2022-09-02T16:23:00;19.60;48.10
18305;DHT22;9278;52.156;21.048;2022-09-02T16:25:28;19.50;47.60
18305;DHT22;9278;52.156;21.048;2022-09-02T16:27:56;19.30;49.60
18305;DHT22;9278;52.156;21.048;2022-09-02T16:30:24;19.20;50.30
18305;DHT22;9278;52.156;21.048;2022-09-02T16:32:54;19.10;49.90
18305;DHT22;9278;52.156;21.048;2022-09-02T16:35:22;19.00;50.80
18305;DHT22;9278;52.156;21.048;2022-09-02T16:37:51;18.90;52.40